createdAt,value
2019-05-19T00:01:47.479Z,11.30
2019-05-19T00:04:15.894Z,11.30
2019-05-19T00:06:44.319Z,11.40
2019-05-19T00:09:12.812Z,11.30
2019-05-19T00:11:41.236Z,11.40
2019-05-19T00:14:09.705Z,11.30
2019-05-19T00:16:38.131Z,11.40
2019-05-19T00:19:06.609Z,11.40
2019-05-19T00:21:35.031Z,11.40
2019-05-19T00:24:03.426Z,11.30
2019-05-19T00:26:31.920Z,11.30
2019-05-19T00:29:00.341Z,11.20
2019-05-19T00:31:28.785Z,11.30
2019-05-19T00:33:57.172Z,11.30
2019-05-19T00:36:25.591Z,11.30
2019-05-19T00:38:54.026Z,11.40
2019-05-19T00:41:22.510Z,11.30
2019-05-19T00:43:50.934Z,11.30
2019-05-19T00:46:19.417Z,11.30
2019-05-19T00:48:47.853Z,11.20
2019-05-19T00:51:16.710Z,11.20
2019-05-19T00:53:45.203Z,11.20
2019-05-19T00:56:13.783Z,11.20
2019-05-19T00:58:43.493Z,11.20
2019-05-19T01:01:11.917Z,11.20
2019-05-19T01:03:40.371Z,11.20
2019-05-19T01:06:17.844Z,11.20
2019-05-19T01:08:46.268Z,11.20
2019-05-19T01:11:14.714Z,11.20
2019-05-19T01:13:43.139Z,11.20
2019-05-19T01:16:11.575Z,11.20
2019-05-19T01:18:40.037Z,11.20
2019-05-19T01:21:08.513Z,11.30
2019-05-19T01:23:36.916Z,11.30
2019-05-19T01:26:05.419Z,11.30
2019-05-19T01:28:33.827Z,11.30
2019-05-19T01:31:02.258Z,11.30
2019-05-19T01:33:31.307Z,11.20
2019-05-19T01:35:59.705Z,11.30
2019-05-19T01:38:28.158Z,11.30
2019-05-19T01:40:56.556Z,11.20
2019-05-19T01:43:25.006Z,11.30
2019-05-19T01:45:53.420Z,11.30
2019-05-19T01:48:21.920Z,11.30
2019-05-19T01:50:50.346Z,11.30
2019-05-19T01:53:18.790Z,11.30
2019-05-19T01:55:47.223Z,11.30
2019-05-19T01:58:15.655Z,11.30
2019-05-19T02:00:44.078Z,11.30
2019-05-19T02:03:12.519Z,11.30
2019-05-19T02:05:40.936Z,11.30
2019-05-19T02:08:09.619Z,11.30
2019-05-19T02:10:38.099Z,11.30
2019-05-19T02:13:06.522Z,11.20
2019-05-19T02:15:34.948Z,11.20
2019-05-19T02:18:03.357Z,11.30
2019-05-19T02:20:33.692Z,11.30
2019-05-19T02:23:01.976Z,11.30
2019-05-19T02:25:30.458Z,11.30
2019-05-19T02:27:58.958Z,11.30
2019-05-19T02:30:27.405Z,11.30
2019-05-19T02:32:55.818Z,11.30
2019-05-19T02:35:24.245Z,11.30
2019-05-19T02:37:52.671Z,11.30
2019-05-19T02:40:21.246Z,11.30
2019-05-19T02:42:51.185Z,11.30
2019-05-19T02:45:19.677Z,11.30
2019-05-19T02:47:49.811Z,11.30
2019-05-19T02:50:19.798Z,11.30
2019-05-19T02:52:50.149Z,11.30
2019-05-19T02:55:20.116Z,11.30
2019-05-19T02:57:50.757Z,11.30
2019-05-19T03:00:22.421Z,11.30
2019-05-19T03:02:50.857Z,11.40
2019-05-19T03:05:19.324Z,11.40
2019-05-19T03:07:47.760Z,11.50
2019-05-19T03:10:16.598Z,11.50
2019-05-19T03:12:45.043Z,11.50
2019-05-19T03:15:13.530Z,11.50
2019-05-19T03:17:41.936Z,11.50
2019-05-19T03:20:10.455Z,11.50
2019-05-19T03:22:38.849Z,11.50
2019-05-19T03:25:07.451Z,11.50
2019-05-19T03:27:35.871Z,11.50
2019-05-19T03:30:24.167Z,11.60
2019-05-19T03:32:54.256Z,11.50
2019-05-19T03:35:22.686Z,11.50
2019-05-19T03:37:51.107Z,11.50
2019-05-19T03:40:22.317Z,11.60
2019-05-19T03:42:51.011Z,11.60
2019-05-19T03:45:19.526Z,11.60
2019-05-19T03:47:48.000Z,11.50
2019-05-19T03:50:16.428Z,11.50
2019-05-19T03:52:45.019Z,11.60
2019-05-19T03:55:13.562Z,11.50
2019-05-19T03:57:42.011Z,11.50
2019-05-19T04:00:10.673Z,11.50
2019-05-19T04:02:39.102Z,11.60
2019-05-19T04:05:10.339Z,11.60
2019-05-19T04:07:38.768Z,11.60
2019-05-19T04:10:07.628Z,11.60
2019-05-19T04:12:36.052Z,11.60
2019-05-19T04:15:06.107Z,11.60
2019-05-19T04:17:34.533Z,11.60
2019-05-19T04:20:03.031Z,11.60
2019-05-19T04:22:31.444Z,11.60
2019-05-19T04:24:59.961Z,11.70
2019-05-19T04:27:28.378Z,11.60
2019-05-19T04:29:56.884Z,11.70
2019-05-19T04:32:25.302Z,11.70
2019-05-19T04:34:53.718Z,11.70
2019-05-19T04:37:22.169Z,11.70
2019-05-19T04:39:50.612Z,11.70
2019-05-19T04:42:19.023Z,11.70
2019-05-19T04:44:47.440Z,11.70
2019-05-19T04:47:15.879Z,11.80
2019-05-19T04:49:44.306Z,11.80
2019-05-19T04:52:12.731Z,11.80
2019-05-19T04:54:41.159Z,11.80
2019-05-19T04:57:09.613Z,11.80
2019-05-19T04:59:38.051Z,11.80
2019-05-19T05:02:06.460Z,11.80
2019-05-19T05:04:34.904Z,11.80
2019-05-19T05:07:04.319Z,11.90
2019-05-19T05:09:32.787Z,11.90
2019-05-19T05:12:01.213Z,11.90
2019-05-19T05:14:29.802Z,12.00
2019-05-19T05:16:58.257Z,11.90
2019-05-19T05:19:26.668Z,12.00
2019-05-19T05:21:55.096Z,12.00
2019-05-19T05:24:23.517Z,12.10
2019-05-19T05:26:51.933Z,12.00
2019-05-19T05:29:20.457Z,12.00
2019-05-19T05:31:48.883Z,12.00
2019-05-19T05:34:17.311Z,12.00
2019-05-19T05:36:45.709Z,12.00
2019-05-19T05:39:14.139Z,12.00
2019-05-19T05:41:42.578Z,12.10
2019-05-19T05:44:11.070Z,12.10
2019-05-19T05:46:39.524Z,12.10
2019-05-19T05:49:07.943Z,12.10
2019-05-19T05:51:36.382Z,12.20
2019-05-19T05:54:04.906Z,12.20
2019-05-19T05:56:34.144Z,12.30
2019-05-19T05:59:02.597Z,12.30
2019-05-19T06:01:31.088Z,12.30
2019-05-19T06:03:59.575Z,12.40
2019-05-19T06:06:28.151Z,12.40
2019-05-19T06:08:56.631Z,12.50
2019-05-19T06:11:25.056Z,12.60
2019-05-19T06:13:53.480Z,12.60
2019-05-19T06:16:21.893Z,12.70
2019-05-19T06:18:50.318Z,12.80
2019-05-19T06:21:18.741Z,12.80
2019-05-19T06:23:47.149Z,12.90
2019-05-19T06:26:15.586Z,13.10
2019-05-19T06:28:43.994Z,13.20
2019-05-19T06:31:12.411Z,13.30
2019-05-19T06:33:40.848Z,13.50
2019-05-19T06:36:09.540Z,13.60
2019-05-19T06:38:38.001Z,13.70
2019-05-19T06:41:06.516Z,13.80
2019-05-19T06:43:34.926Z,13.80
2019-05-19T06:46:03.334Z,13.90
2019-05-19T06:48:31.781Z,14.00
2019-05-19T06:51:00.650Z,14.10
2019-05-19T06:53:33.399Z,14.10
2019-05-19T06:56:02.047Z,14.10
2019-05-19T06:58:30.466Z,14.20
2019-05-19T07:01:04.945Z,14.30
2019-05-19T07:03:39.458Z,14.10
2019-05-19T07:06:07.990Z,14.00
2019-05-19T07:08:36.491Z,14.00
2019-05-19T07:11:06.658Z,14.10
2019-05-19T07:13:36.948Z,14.30
2019-05-19T07:16:08.091Z,14.00
2019-05-19T07:18:42.122Z,14.00
2019-05-19T07:21:13.908Z,14.30
2019-05-19T07:23:42.394Z,14.20
2019-05-19T07:26:13.147Z,14.20
2019-05-19T07:28:43.240Z,14.20
2019-05-19T07:31:29.974Z,14.30
2019-05-19T07:34:14.259Z,14.20
2019-05-19T07:36:44.482Z,14.20
2019-05-19T07:39:15.489Z,14.10
2019-05-19T07:41:49.504Z,14.20
2019-05-19T07:44:17.157Z,14.30
2019-05-19T07:46:48.543Z,14.30
2019-05-19T07:49:18.654Z,14.20
2019-05-19T07:51:51.418Z,14.20
2019-05-19T07:54:21.191Z,14.40
2019-05-19T07:56:49.727Z,14.30
2019-05-19T07:59:19.271Z,14.40
2019-05-19T08:01:47.824Z,14.60
2019-05-19T08:04:16.668Z,14.70
2019-05-19T08:06:46.371Z,14.80
2019-05-19T08:09:19.985Z,14.90
2019-05-19T08:11:49.906Z,15.00
2019-05-19T08:14:19.914Z,15.20
2019-05-19T08:16:59.538Z,15.30
2019-05-19T08:19:34.571Z,15.50
2019-05-19T08:21:58.989Z,15.80
2019-05-19T08:24:32.244Z,15.90
2019-05-19T08:27:00.736Z,15.90
2019-05-19T08:29:29.251Z,16.00
2019-05-19T08:32:02.078Z,16.20
2019-05-19T08:34:36.767Z,16.50
2019-05-19T08:37:26.136Z,16.60
2019-05-19T08:39:59.042Z,16.80
2019-05-19T08:42:27.594Z,16.90
2019-05-19T08:44:56.141Z,16.80
2019-05-19T08:47:27.809Z,16.80
2019-05-19T08:49:56.435Z,17.10
2019-05-19T08:52:24.898Z,17.20
2019-05-19T08:54:53.343Z,17.40
2019-05-19T08:57:21.799Z,17.20
2019-05-19T08:59:50.272Z,17.10
2019-05-19T09:02:18.784Z,17.10
2019-05-19T09:04:47.281Z,17.10
2019-05-19T09:07:15.737Z,17.20
2019-05-19T09:09:44.152Z,17.20
2019-05-19T09:12:12.702Z,17.40
2019-05-19T09:14:41.106Z,17.50
2019-05-19T09:17:09.528Z,17.40
2019-05-19T09:19:37.948Z,17.60
2019-05-19T09:22:06.689Z,17.30
2019-05-19T09:24:37.304Z,17.30
2019-05-19T09:27:05.276Z,17.20
2019-05-19T09:29:34.615Z,16.70
2019-05-19T09:32:03.056Z,16.60
2019-05-19T09:34:31.569Z,16.80
2019-05-19T09:36:59.969Z,16.70
2019-05-19T09:39:28.402Z,16.70
2019-05-19T09:41:56.804Z,16.80
2019-05-19T09:44:25.220Z,16.80
2019-05-19T09:46:53.624Z,16.70
2019-05-19T09:49:34.863Z,16.50
2019-05-19T09:52:05.223Z,16.50
2019-05-19T09:54:44.610Z,16.40
2019-05-19T09:57:04.199Z,16.60
2019-05-19T09:59:32.635Z,16.60
2019-05-19T10:02:01.073Z,16.80
2019-05-19T10:04:29.621Z,16.80
2019-05-19T10:06:58.063Z,16.60
2019-05-19T10:09:38.860Z,16.60
2019-05-19T10:12:08.310Z,16.60
2019-05-19T10:14:36.721Z,16.60
2019-05-19T10:17:05.290Z,16.60
2019-05-19T10:19:33.718Z,16.70
2019-05-19T10:22:02.198Z,16.60
2019-05-19T10:24:30.617Z,16.50
2019-05-19T10:26:59.030Z,16.50
2019-05-19T10:29:27.500Z,16.40
2019-05-19T10:31:55.959Z,16.30
2019-05-19T10:34:24.424Z,16.30
2019-05-19T10:36:53.018Z,16.20
2019-05-19T10:39:21.424Z,16.20
2019-05-19T10:41:49.836Z,16.20
2019-05-19T10:44:18.264Z,16.30
2019-05-19T10:46:46.717Z,16.30
2019-05-19T10:49:15.114Z,16.40
2019-05-19T10:51:43.570Z,16.40
2019-05-19T10:54:12.065Z,16.50
2019-05-19T10:56:40.489Z,16.60
2019-05-19T10:59:08.938Z,16.80
2019-05-19T11:01:37.394Z,16.80
2019-05-19T11:04:05.909Z,16.70
2019-05-19T11:06:34.335Z,16.60
2019-05-19T11:09:04.171Z,16.60
2019-05-19T11:11:33.757Z,16.70
2019-05-19T11:14:02.489Z,16.90
2019-05-19T11:16:31.027Z,16.70
2019-05-19T11:18:59.733Z,16.80
2019-05-19T11:21:28.181Z,17.00
2019-05-19T11:23:56.681Z,17.10
2019-05-19T11:26:25.093Z,16.90
2019-05-19T11:28:53.537Z,17.20
2019-05-19T11:31:21.979Z,17.20
2019-05-19T11:33:50.390Z,17.40
2019-05-19T11:36:18.811Z,17.30
2019-05-19T11:38:47.224Z,17.50
2019-05-19T11:41:15.674Z,17.30
2019-05-19T11:43:44.096Z,17.00
2019-05-19T11:46:12.647Z,17.00
2019-05-19T11:48:41.064Z,17.50
2019-05-19T11:51:09.469Z,17.60
2019-05-19T11:53:37.895Z,17.70
2019-05-19T11:56:10.563Z,18.20
2019-05-19T11:58:36.478Z,18.10
2019-05-19T12:01:04.889Z,17.90
2019-05-19T12:03:33.382Z,18.20
2019-05-19T12:06:01.814Z,18.30
2019-05-19T12:08:30.228Z,18.10
2019-05-19T12:10:58.667Z,17.70
2019-05-19T12:13:27.154Z,18.00
2019-05-19T12:15:55.587Z,18.10
2019-05-19T12:18:23.996Z,18.10
2019-05-19T12:20:52.473Z,18.00
2019-05-19T12:23:20.875Z,18.10
2019-05-19T12:25:49.308Z,18.30
2019-05-19T12:28:17.703Z,18.20
2019-05-19T12:30:46.159Z,18.60
2019-05-19T12:33:14.605Z,18.50
2019-05-19T12:35:43.101Z,18.50
2019-05-19T12:38:11.495Z,18.50
2019-05-19T12:40:40.194Z,18.40
2019-05-19T12:43:08.619Z,18.50
2019-05-19T12:45:37.169Z,18.20
2019-05-19T12:48:05.783Z,18.10
2019-05-19T12:50:34.213Z,18.20
2019-05-19T12:53:02.634Z,18.40
2019-05-19T12:55:31.067Z,18.30
2019-05-19T12:57:59.586Z,18.40
2019-05-19T13:00:28.002Z,18.70
2019-05-19T13:02:56.426Z,18.80
2019-05-19T13:05:24.855Z,18.90
2019-05-19T13:07:53.259Z,18.70
2019-05-19T13:10:21.688Z,18.20
2019-05-19T13:12:50.161Z,18.40
2019-05-19T13:15:18.650Z,18.30
2019-05-19T13:17:47.086Z,18.40
2019-05-19T13:20:15.624Z,18.40
2019-05-19T13:22:44.058Z,18.80
2019-05-19T13:25:12.663Z,18.70
2019-05-19T13:27:41.076Z,18.90
2019-05-19T13:30:09.621Z,18.90
2019-05-19T13:32:38.034Z,18.70
2019-05-19T13:35:07.089Z,18.60
2019-05-19T13:37:35.488Z,18.90
2019-05-19T13:40:05.672Z,19.40
2019-05-19T13:42:34.097Z,19.40
2019-05-19T13:45:02.574Z,19.40
2019-05-19T13:47:31.012Z,19.40
2019-05-19T13:49:59.484Z,19.20
2019-05-19T13:52:27.942Z,19.30
2019-05-19T13:54:56.366Z,19.20
2019-05-19T13:57:24.841Z,19.10
2019-05-19T13:59:53.267Z,19.20
2019-05-19T14:02:21.668Z,18.80
2019-05-19T14:04:50.526Z,19.10
2019-05-19T14:07:18.991Z,19.60
2019-05-19T14:09:47.390Z,19.80
2019-05-19T14:12:15.832Z,19.60
2019-05-19T14:14:44.229Z,19.50
2019-05-19T14:17:12.661Z,19.60
2019-05-19T14:19:41.077Z,19.50
2019-05-19T14:22:09.575Z,19.30
2019-05-19T14:24:37.990Z,19.30
2019-05-19T14:27:06.466Z,18.90
2019-05-19T14:29:34.897Z,18.30
2019-05-19T14:32:03.332Z,18.00
2019-05-19T14:34:31.745Z,18.00
2019-05-19T14:37:00.238Z,18.10
2019-05-19T14:39:28.664Z,18.20
2019-05-19T14:41:58.741Z,18.40
2019-05-19T14:44:27.160Z,18.50
2019-05-19T14:46:55.592Z,18.70
2019-05-19T14:49:24.062Z,18.90
2019-05-19T14:51:52.471Z,19.00
2019-05-19T14:54:20.905Z,19.00
2019-05-19T14:56:49.320Z,19.00
2019-05-19T14:59:17.746Z,19.00
2019-05-19T15:01:46.164Z,19.10
2019-05-19T15:04:14.632Z,19.40
2019-05-19T15:06:43.988Z,19.70
2019-05-19T15:09:12.403Z,20.00
2019-05-19T15:11:40.851Z,20.40
2019-05-19T15:14:09.339Z,20.50
2019-05-19T15:16:37.780Z,20.50
2019-05-19T15:19:06.180Z,20.60
2019-05-19T15:21:34.605Z,20.70
2019-05-19T15:24:03.096Z,20.80
2019-05-19T15:26:31.619Z,21.10
2019-05-19T15:29:00.034Z,21.20
2019-05-19T15:31:28.477Z,21.30
2019-05-19T15:33:56.875Z,21.10
2019-05-19T15:36:25.363Z,20.70
2019-05-19T15:38:53.819Z,20.40
2019-05-19T15:41:22.275Z,20.20
2019-05-19T15:43:50.714Z,20.30
2019-05-19T15:46:19.119Z,20.40
2019-05-19T15:48:47.558Z,20.40
2019-05-19T15:51:27.946Z,20.30
2019-05-19T15:53:46.217Z,20.30
2019-05-19T15:56:15.853Z,20.30
2019-05-19T15:58:44.269Z,20.30
2019-05-19T16:01:13.068Z,20.10
2019-05-19T16:03:41.631Z,19.90
2019-05-19T16:06:10.082Z,20.00
2019-05-19T16:08:38.580Z,20.00
2019-05-19T16:11:07.024Z,20.00
2019-05-19T16:13:35.435Z,20.00
2019-05-19T16:16:04.036Z,20.00
2019-05-19T16:18:32.462Z,19.80
2019-05-19T16:21:00.902Z,19.70
2019-05-19T16:23:32.951Z,19.50
2019-05-19T16:26:45.483Z,19.30
2019-05-19T16:29:02.096Z,19.10
2019-05-19T16:31:31.785Z,18.80
2019-05-19T16:34:00.267Z,18.70
2019-05-19T16:36:28.741Z,18.60
2019-05-19T16:38:57.174Z,18.60
2019-05-19T16:41:25.679Z,18.50
2019-05-19T16:43:54.096Z,18.40
2019-05-19T16:46:22.505Z,18.30
2019-05-19T16:48:50.943Z,18.30
2019-05-19T16:51:19.350Z,18.20
2019-05-19T16:53:49.446Z,18.10
2019-05-19T16:56:17.840Z,17.90
2019-05-19T16:58:46.270Z,17.90
2019-05-19T17:01:14.677Z,17.70
2019-05-19T17:03:43.205Z,17.60
2019-05-19T17:06:11.637Z,17.50
2019-05-19T17:08:40.069Z,17.50
2019-05-19T17:11:18.440Z,17.50
2019-05-19T17:13:44.555Z,17.60
2019-05-19T17:16:12.982Z,17.80
2019-05-19T17:18:41.437Z,17.90
2019-05-19T17:21:09.906Z,18.00
2019-05-19T17:23:40.298Z,18.00
2019-05-19T17:26:08.712Z,18.00
2019-05-19T17:28:37.135Z,18.10
2019-05-19T17:31:24.893Z,18.20
2019-05-19T17:33:53.307Z,18.30
2019-05-19T17:36:21.768Z,18.30
2019-05-19T17:38:50.179Z,18.30
2019-05-19T17:41:18.612Z,18.30
2019-05-19T17:43:47.101Z,18.40
2019-05-19T17:46:15.609Z,18.50
2019-05-19T17:48:44.094Z,18.50
2019-05-19T17:51:12.543Z,18.40
2019-05-19T17:53:41.533Z,18.30
2019-05-19T17:56:10.081Z,18.20
2019-05-19T17:58:38.729Z,18.20
2019-05-19T18:01:07.184Z,18.10
2019-05-19T18:03:36.502Z,18.00
2019-05-19T18:06:05.021Z,17.90
2019-05-19T18:08:33.453Z,17.90
2019-05-19T18:11:01.899Z,17.80
2019-05-19T18:13:30.346Z,17.70
2019-05-19T18:15:58.736Z,17.70
2019-05-19T18:18:27.176Z,17.70
2019-05-19T18:20:55.626Z,17.60
2019-05-19T18:23:24.076Z,17.60
2019-05-19T18:25:52.464Z,17.60
2019-05-19T18:28:20.902Z,17.50
2019-05-19T18:30:49.399Z,17.50
2019-05-19T18:33:17.826Z,17.40
2019-05-19T18:35:46.287Z,17.30
2019-05-19T18:38:14.733Z,17.20
2019-05-19T18:40:43.152Z,17.20
2019-05-19T18:43:11.596Z,17.10
2019-05-19T18:45:46.885Z,17.00
2019-05-19T18:48:15.314Z,17.00
2019-05-19T18:50:43.827Z,16.90
2019-05-19T18:53:12.245Z,16.70
2019-05-19T18:55:40.682Z,16.70
2019-05-19T18:58:09.110Z,16.50
2019-05-19T19:00:38.415Z,16.40
2019-05-19T19:03:07.126Z,16.30
2019-05-19T19:05:35.868Z,16.20
2019-05-19T19:08:04.423Z,16.10
2019-05-19T19:10:32.903Z,15.90
2019-05-19T19:13:01.351Z,15.80
2019-05-19T19:15:29.827Z,15.70
2019-05-19T19:18:06.180Z,15.60
2019-05-19T19:20:35.082Z,15.60
2019-05-19T19:23:03.970Z,15.50
2019-05-19T19:25:32.397Z,15.40
2019-05-19T19:28:00.811Z,15.30
2019-05-19T19:30:29.240Z,15.20
2019-05-19T19:32:57.736Z,15.20
2019-05-19T19:35:37.787Z,15.20
2019-05-19T19:37:57.297Z,15.20
2019-05-19T19:40:30.381Z,15.20
2019-05-19T19:42:59.902Z,15.10
2019-05-19T19:45:28.564Z,15.00
2019-05-19T19:47:56.971Z,14.90
2019-05-19T19:50:25.405Z,14.90
2019-05-19T19:52:53.848Z,14.80
2019-05-19T19:55:22.267Z,14.80
2019-05-19T19:57:50.711Z,14.70
2019-05-19T20:00:25.262Z,14.70
2019-05-19T20:02:54.666Z,14.60
2019-05-19T20:05:23.082Z,14.60
2019-05-19T20:07:51.534Z,14.50
2019-05-19T20:10:19.943Z,14.50
2019-05-19T20:12:48.381Z,14.40
2019-05-19T20:15:16.829Z,14.30
2019-05-19T20:17:45.238Z,14.30
2019-05-19T20:20:13.732Z,14.30
2019-05-19T20:22:42.171Z,14.20
2019-05-19T20:25:10.918Z,14.20
2019-05-19T20:27:39.325Z,14.20
2019-05-19T20:30:07.899Z,14.10
2019-05-19T20:32:36.306Z,14.10
2019-05-19T20:35:05.092Z,14.00
2019-05-19T20:37:33.488Z,14.00
2019-05-19T20:40:01.955Z,13.90
2019-05-19T20:42:30.375Z,13.90
2019-05-19T20:44:58.809Z,13.80
2019-05-19T20:47:27.218Z,13.80
2019-05-19T20:49:55.618Z,13.70
2019-05-19T20:52:24.050Z,13.70
2019-05-19T20:54:52.484Z,13.70
2019-05-19T20:57:20.907Z,13.70
2019-05-19T20:59:49.333Z,13.70
2019-05-19T21:02:17.744Z,13.60
2019-05-19T21:04:46.157Z,13.60
2019-05-19T21:07:14.596Z,13.50
2019-05-19T21:09:43.005Z,13.50
2019-05-19T21:12:11.476Z,13.50
2019-05-19T21:14:39.905Z,13.50
2019-05-19T21:17:08.337Z,13.50
2019-05-19T21:19:36.741Z,13.50
2019-05-19T21:22:05.240Z,13.60
2019-05-19T21:24:33.665Z,13.50
2019-05-19T21:27:02.100Z,13.40
2019-05-19T21:29:30.509Z,13.40
2019-05-19T21:31:58.942Z,13.40
2019-05-19T21:34:27.357Z,13.30
2019-05-19T21:36:55.788Z,13.30
2019-05-19T21:39:24.190Z,13.20
2019-05-19T21:41:52.632Z,13.30
2019-05-19T21:44:21.051Z,13.20
2019-05-19T21:46:49.538Z,13.20
2019-05-19T21:49:18.237Z,13.20
2019-05-19T21:51:46.725Z,13.20
2019-05-19T21:54:16.094Z,13.20
2019-05-19T21:56:44.515Z,13.20
2019-05-19T21:59:12.940Z,13.10
2019-05-19T22:01:41.421Z,13.10
2019-05-19T22:04:09.837Z,13.10
2019-05-19T22:06:39.934Z,13.20
2019-05-19T22:09:08.385Z,13.20
2019-05-19T22:11:36.816Z,13.10
2019-05-19T22:14:05.362Z,13.20
2019-05-19T22:16:33.833Z,13.20
2019-05-19T22:19:02.238Z,13.20
2019-05-19T22:21:30.662Z,13.10
2019-05-19T22:23:59.090Z,13.00
2019-05-19T22:26:27.531Z,13.00
2019-05-19T22:28:55.981Z,13.00
2019-05-19T22:31:36.310Z,13.00
2019-05-19T22:33:54.775Z,13.10
2019-05-19T22:36:23.344Z,13.10
2019-05-19T22:38:51.761Z,13.00
2019-05-19T22:41:20.231Z,13.00
2019-05-19T22:43:48.695Z,13.00
2019-05-19T22:46:19.139Z,13.00
2019-05-19T22:48:47.646Z,12.90
2019-05-19T22:51:16.074Z,12.80
2019-05-19T22:53:44.581Z,12.80
2019-05-19T22:56:13.051Z,12.80
2019-05-19T22:58:41.747Z,12.80
2019-05-19T23:01:10.259Z,12.80
2019-05-19T23:03:38.737Z,12.80
2019-05-19T23:06:07.166Z,12.70
2019-05-19T23:08:35.714Z,12.70
2019-05-19T23:11:04.264Z,12.70
2019-05-19T23:13:32.691Z,12.70
2019-05-19T23:16:01.278Z,12.70
2019-05-19T23:18:29.759Z,12.70
2019-05-19T23:20:58.253Z,12.70
2019-05-19T23:23:26.826Z,12.70
2019-05-19T23:25:55.256Z,12.70
2019-05-19T23:28:23.743Z,12.60
2019-05-19T23:30:52.140Z,12.60
2019-05-19T23:33:20.599Z,12.50
2019-05-19T23:35:49.024Z,12.60
2019-05-19T23:38:17.421Z,12.50
2019-05-19T23:40:45.858Z,12.50
2019-05-19T23:43:14.253Z,12.50
2019-05-19T23:45:42.694Z,12.50
2019-05-19T23:48:11.141Z,12.50
2019-05-19T23:50:39.637Z,12.50
2019-05-19T23:53:08.064Z,12.50
2019-05-19T23:55:36.547Z,12.50
2019-05-19T23:58:05.103Z,12.50
